createdAt,value
2018-11-04T00:03:52.888Z,58.90
2018-11-04T00:06:47.391Z,58.98
2018-11-04T00:09:21.494Z,59.04
2018-11-04T00:11:57.091Z,59.08
2018-11-04T00:20:16.493Z,59.17
2018-11-04T00:23:11.675Z,59.27
2018-11-04T00:25:46.932Z,59.24
2018-11-04T00:31:23.282Z,59.28
2018-11-04T00:34:18.511Z,59.34
2018-11-04T00:36:53.544Z,59.21
2018-11-04T00:39:28.198Z,59.17
2018-11-04T00:44:56.151Z,59.06
2018-11-04T00:53:03.390Z,59.22
2018-11-04T00:58:42.466Z,59.04
2018-11-04T01:01:37.398Z,59.03
2018-11-04T01:04:12.478Z,59.04
2018-11-04T01:06:49.088Z,59.04
2018-11-04T01:14:56.617Z,59.06
2018-11-04T01:17:49.894Z,59.06
2018-11-04T01:20:24.913Z,59.11
2018-11-04T01:25:45.231Z,59.07
2018-11-04T01:28:38.997Z,59.28
2018-11-04T01:33:56.288Z,59.40
2018-11-04T01:39:35.818Z,59.88
2018-11-04T01:42:29.552Z,60.15
2018-11-04T01:45:04.549Z,60.17
2018-11-04T01:50:31.100Z,60.09
2018-11-04T01:53:26.339Z,60.24
2018-11-04T01:56:03.906Z,60.23
2018-11-04T01:58:40.287Z,60.24
2018-11-04T02:04:26.886Z,60.31
2018-11-04T02:09:48.877Z,59.84
2018-11-04T02:12:42.385Z,59.92
2018-11-04T02:15:18.687Z,59.93
2018-11-04T02:17:53.077Z,60.05
2018-11-04T02:23:40.523Z,60.11
2018-11-04T02:26:16.271Z,60.06
2018-11-04T02:28:52.410Z,59.76
2018-11-04T02:34:07.091Z,59.44
2018-11-04T02:37:01.677Z,59.41
2018-11-04T02:39:37.616Z,59.42
2018-11-04T02:42:12.993Z,59.35
2018-11-04T02:47:59.677Z,59.58
2018-11-04T02:50:34.926Z,59.67
2018-11-04T02:56:00.783Z,59.58
2018-11-04T02:58:55.574Z,60.19
2018-11-04T03:01:30.607Z,60.74
2018-11-04T03:04:05.316Z,61.04
2018-11-04T03:09:53.301Z,61.13
2018-11-04T03:12:28.853Z,61.39
2018-11-04T03:15:04.815Z,61.02
2018-11-04T03:17:40.516Z,60.56
2018-11-04T03:22:58.737Z,60.53
2018-11-04T03:25:53.793Z,60.59
2018-11-04T03:28:28.834Z,60.67
2018-11-04T03:31:03.902Z,60.58
2018-11-04T03:39:32.491Z,60.47
2018-11-04T03:42:26.020Z,60.47
2018-11-04T03:45:01.566Z,60.33
2018-11-04T03:47:36.499Z,60.30
2018-11-04T03:53:24.759Z,60.11
2018-11-04T03:55:59.536Z,60.24
2018-11-04T04:01:18.634Z,59.57
2018-11-04T04:04:14.169Z,59.54
2018-11-04T04:09:33.151Z,59.16
2018-11-04T04:12:27.195Z,59.08
2018-11-04T04:15:02.452Z,58.98
2018-11-04T04:17:37.113Z,59.01
2018-11-04T04:23:22.821Z,59.19
2018-11-04T04:25:57.178Z,59.28
2018-11-04T04:28:32.405Z,59.35
2018-11-04T04:31:07.594Z,59.59
2018-11-04T04:33:42.876Z,59.81
2018-11-04T04:36:17.606Z,59.98
2018-11-04T04:38:53.106Z,59.92
2018-11-04T04:41:28.050Z,59.97
2018-11-04T04:44:02.673Z,59.47
2018-11-04T04:46:41.910Z,59.26
2018-11-04T04:49:18.393Z,59.07
2018-11-04T04:51:53.073Z,59.00
2018-11-04T04:57:17.815Z,59.00
2018-11-04T05:00:11.810Z,59.03
2018-11-04T05:02:47.813Z,59.00
2018-11-04T05:05:22.660Z,59.06
2018-11-04T05:11:13.366Z,59.62
2018-11-04T05:13:49.386Z,59.55
2018-11-04T05:16:24.396Z,59.61
2018-11-04T05:19:00.205Z,59.63
2018-11-04T05:21:35.726Z,59.83
2018-11-04T05:24:10.662Z,59.75
2018-11-04T05:26:45.058Z,59.85
2018-11-04T05:29:20.328Z,59.90
2018-11-04T05:31:54.664Z,60.40
2018-11-04T05:34:29.783Z,60.83
2018-11-04T05:37:04.752Z,60.82
2018-11-04T05:39:40.058Z,61.16
2018-11-04T05:42:14.736Z,61.47
2018-11-04T05:44:49.573Z,61.54
2018-11-04T05:47:23.845Z,61.36
2018-11-04T05:49:58.514Z,61.33
2018-11-04T05:52:33.530Z,61.66
2018-11-04T05:55:09.577Z,61.99
2018-11-04T05:57:44.666Z,61.91
2018-11-04T06:00:20.014Z,61.83
2018-11-04T06:02:55.729Z,61.86
2018-11-04T06:05:30.742Z,61.88
2018-11-04T06:08:06.483Z,61.80
2018-11-04T06:10:42.194Z,61.94
2018-11-04T06:13:17.321Z,62.23
2018-11-04T06:15:52.059Z,62.09
2018-11-04T06:21:09.841Z,62.04
2018-11-04T06:23:45.580Z,62.10
2018-11-04T06:26:20.711Z,62.04
2018-11-04T06:28:56.188Z,62.10
2018-11-04T06:31:32.658Z,62.37
2018-11-04T06:34:07.938Z,62.41
2018-11-04T06:36:43.111Z,62.44
2018-11-04T06:39:18.317Z,62.56
2018-11-04T06:41:53.030Z,62.79
2018-11-04T06:44:28.264Z,62.68
2018-11-04T06:47:04.089Z,62.88
2018-11-04T06:49:40.252Z,62.76
2018-11-04T06:52:15.588Z,62.79
2018-11-04T06:54:55.072Z,63.01
2018-11-04T06:57:30.099Z,62.86
2018-11-04T07:00:06.085Z,62.71
2018-11-04T07:02:42.172Z,62.39
2018-11-04T07:05:17.612Z,62.45
2018-11-04T07:07:52.757Z,62.60
2018-11-04T07:10:26.687Z,62.90
2018-11-04T07:13:03.034Z,62.76
2018-11-04T07:15:38.021Z,62.78
2018-11-04T07:18:14.412Z,62.79
2018-11-04T07:23:34.548Z,62.51
2018-11-04T07:26:09.570Z,62.52
2018-11-04T07:28:43.856Z,62.45
2018-11-04T07:34:02.379Z,62.61
2018-11-04T07:36:37.305Z,62.42
2018-11-04T07:39:14.857Z,62.77
2018-11-04T07:41:50.498Z,62.60
2018-11-04T07:44:26.627Z,62.55
2018-11-04T07:47:01.213Z,62.44
2018-11-04T07:49:35.609Z,62.29
2018-11-04T07:52:10.884Z,62.33
2018-11-04T07:54:46.295Z,62.30
2018-11-04T08:00:04.513Z,62.40
2018-11-04T08:02:39.888Z,62.28
2018-11-04T08:10:50.650Z,61.73
2018-11-04T08:13:25.975Z,61.51
2018-11-04T08:18:43.683Z,61.49
2018-11-04T08:21:18.363Z,61.37
2018-11-04T08:26:45.025Z,61.55
2018-11-04T08:32:02.925Z,61.64
2018-11-04T08:34:38.201Z,61.49
2018-11-04T08:37:14.167Z,61.59
2018-11-04T08:39:49.659Z,61.56
2018-11-04T08:42:24.176Z,61.57
2018-11-04T08:44:59.583Z,61.49
2018-11-04T08:47:35.994Z,61.20
2018-11-04T08:50:12.350Z,61.09
2018-11-04T08:55:30.478Z,60.71
2018-11-04T09:00:49.494Z,60.35
2018-11-04T09:03:24.394Z,60.52
2018-11-04T09:09:05.482Z,60.28
2018-11-04T09:11:40.538Z,60.11
2018-11-04T09:14:16.109Z,60.35
2018-11-04T09:16:50.698Z,60.45
2018-11-04T09:19:26.402Z,60.44
2018-11-04T09:22:01.541Z,60.31
2018-11-04T09:24:37.513Z,60.18
2018-11-04T09:27:13.231Z,60.04
2018-11-04T09:41:02.265Z,59.84
2018-11-04T09:43:37.292Z,60.20
2018-11-04T09:48:56.349Z,60.44
2018-11-04T09:51:31.281Z,60.27
2018-11-04T09:54:06.272Z,60.39
2018-11-04T09:59:25.089Z,60.69
2018-11-04T10:01:59.765Z,60.65
2018-11-04T10:04:35.227Z,60.49
2018-11-04T10:07:10.376Z,60.67
2018-11-04T10:09:46.185Z,60.97
2018-11-04T10:12:22.084Z,60.60
2018-11-04T10:14:58.010Z,60.38
2018-11-04T10:20:26.160Z,60.56
2018-11-04T10:23:01.247Z,60.61
2018-11-04T10:25:37.454Z,60.80
2018-11-04T10:28:12.983Z,60.35
2018-11-04T10:33:35.335Z,60.09
2018-11-04T10:36:09.357Z,60.08
2018-11-04T10:38:44.317Z,60.24
2018-11-04T10:41:19.750Z,60.13
2018-11-04T10:43:54.899Z,60.23
2018-11-04T10:46:29.885Z,60.48
2018-11-04T10:49:06.498Z,60.20
2018-11-04T10:51:40.794Z,60.08
2018-11-04T10:54:15.996Z,60.17
2018-11-04T10:59:34.333Z,59.95
2018-11-04T11:02:10.087Z,59.91
2018-11-04T11:04:45.053Z,59.99
2018-11-04T11:07:20.299Z,59.71
2018-11-04T11:09:57.578Z,59.58
2018-11-04T11:12:33.691Z,59.60
2018-11-04T11:15:10.823Z,59.91
2018-11-04T11:20:30.755Z,59.56
2018-11-04T11:23:06.952Z,59.79
2018-11-04T11:25:41.550Z,59.55
2018-11-04T11:31:07.741Z,59.24
2018-11-04T11:33:42.563Z,59.26
2018-11-04T11:36:17.201Z,59.41
2018-11-04T11:38:54.376Z,59.59
2018-11-04T11:41:29.204Z,59.77
2018-11-04T11:46:45.385Z,59.60
2018-11-04T11:49:20.343Z,59.89
2018-11-04T11:51:55.977Z,59.81
2018-11-04T11:54:32.470Z,59.83
2018-11-04T11:57:08.302Z,59.82
2018-11-04T11:59:43.486Z,59.59
2018-11-04T12:02:18.125Z,59.59
2018-11-04T12:04:52.368Z,59.50
2018-11-04T12:10:10.755Z,59.19
2018-11-04T12:12:45.309Z,59.01
2018-11-04T12:15:19.872Z,59.02
2018-11-04T12:17:55.194Z,58.71
2018-11-04T12:23:15.706Z,58.91
2018-11-04T12:25:50.360Z,59.24
2018-11-04T12:28:25.511Z,59.21
2018-11-04T12:31:00.156Z,59.28
2018-11-04T12:33:34.966Z,59.14
2018-11-04T12:38:53.046Z,59.10
2018-11-04T12:41:28.819Z,59.21
2018-11-04T12:44:04.270Z,59.31
2018-11-04T12:46:39.331Z,59.33
2018-11-04T12:49:14.192Z,59.15
2018-11-04T12:51:48.475Z,59.07
2018-11-04T12:54:24.068Z,58.99
2018-11-04T12:56:59.535Z,59.08
2018-11-04T13:02:18.003Z,58.96
2018-11-04T13:04:53.497Z,59.20
2018-11-04T13:10:13.812Z,59.17
2018-11-04T13:12:48.811Z,58.91
2018-11-04T13:15:24.298Z,58.50
2018-11-04T13:17:59.614Z,58.57
2018-11-04T13:20:34.107Z,58.02
2018-11-04T13:23:10.021Z,57.99
2018-11-04T13:25:45.017Z,58.32
2018-11-04T13:28:20.951Z,58.70
2018-11-04T13:30:55.795Z,58.49
2018-11-04T13:33:30.542Z,58.47
2018-11-04T13:36:04.801Z,58.56
2018-11-04T13:38:40.295Z,58.45
2018-11-04T13:43:58.903Z,58.11
2018-11-04T13:46:33.537Z,58.19
2018-11-04T13:49:08.701Z,58.37
2018-11-04T13:54:40.224Z,58.04
2018-11-04T13:57:16.093Z,58.28
2018-11-04T13:59:51.098Z,58.33
2018-11-04T14:02:26.816Z,58.08
2018-11-04T14:05:01.826Z,58.22
2018-11-04T14:07:38.477Z,58.46
2018-11-04T14:10:14.186Z,58.53
2018-11-04T14:12:48.664Z,58.46
2018-11-04T14:15:23.601Z,58.86
2018-11-04T14:17:58.414Z,59.05
2018-11-04T14:23:16.362Z,58.64
2018-11-04T14:25:52.933Z,58.52
2018-11-04T14:28:29.015Z,58.39
2018-11-04T14:31:05.295Z,58.70
2018-11-04T14:33:39.284Z,59.02
2018-11-04T14:36:14.215Z,59.29
2018-11-04T14:41:40.874Z,59.44
2018-11-04T14:44:15.466Z,59.28
2018-11-04T14:46:50.529Z,59.03
2018-11-04T14:49:25.946Z,59.49
2018-11-04T14:54:44.872Z,59.82
2018-11-04T15:00:03.697Z,59.99
2018-11-04T15:02:38.049Z,60.09
2018-11-04T15:05:13.018Z,60.10
2018-11-04T15:07:47.617Z,60.39
2018-11-04T15:10:23.019Z,60.62
2018-11-04T15:12:57.970Z,60.61
2018-11-04T15:15:32.857Z,60.23
2018-11-04T15:18:07.594Z,60.24
2018-11-04T15:20:42.979Z,60.26
2018-11-04T15:23:17.756Z,60.24
2018-11-04T15:25:51.689Z,60.23
2018-11-04T15:28:26.696Z,60.73
2018-11-04T15:31:03.254Z,60.58
2018-11-04T15:33:38.255Z,60.31
2018-11-04T15:36:14.865Z,60.92
2018-11-04T15:38:51.409Z,60.88
2018-11-04T15:41:27.342Z,60.83
2018-11-04T15:44:02.803Z,60.94
2018-11-04T15:46:38.199Z,61.46
2018-11-04T15:49:14.678Z,61.33
2018-11-04T15:51:50.935Z,61.21
2018-11-04T15:54:27.070Z,61.20
2018-11-04T15:57:14.109Z,60.87
2018-11-04T15:59:49.994Z,60.85
2018-11-04T16:05:31.567Z,61.00
2018-11-04T16:08:08.311Z,61.43
2018-11-04T16:10:42.695Z,61.76
2018-11-04T16:16:08.946Z,61.81
2018-11-04T16:18:43.933Z,61.76
2018-11-04T16:21:19.114Z,61.70
2018-11-04T16:23:53.750Z,61.54
2018-11-04T16:29:11.182Z,61.23
2018-11-04T16:31:47.052Z,61.47
2018-11-04T16:34:22.796Z,61.50
2018-11-04T16:36:59.606Z,61.64
2018-11-04T16:39:35.152Z,61.63
2018-11-04T16:42:10.365Z,61.30
2018-11-04T16:44:46.526Z,61.37
2018-11-04T16:47:22.099Z,61.69
2018-11-04T16:49:57.351Z,61.38
2018-11-04T16:52:32.782Z,61.48
2018-11-04T16:55:07.858Z,61.54
2018-11-04T16:57:43.225Z,61.97
2018-11-04T17:03:15.576Z,61.66
2018-11-04T17:05:50.719Z,61.68
2018-11-04T17:08:25.357Z,61.74
2018-11-04T17:11:00.294Z,61.47
2018-11-04T17:13:35.877Z,61.67
2018-11-04T17:16:10.626Z,61.42
2018-11-04T17:18:45.038Z,61.17
2018-11-04T17:24:03.673Z,60.76
2018-11-04T17:26:39.675Z,61.44
2018-11-04T17:29:15.625Z,61.87
2018-11-04T17:31:50.616Z,61.86
2018-11-04T17:34:26.307Z,62.05
2018-11-04T17:37:02.216Z,61.91
2018-11-04T17:39:36.995Z,62.01
2018-11-04T17:42:12.820Z,62.46
2018-11-04T17:44:47.557Z,62.34
2018-11-04T17:47:22.584Z,62.44
2018-11-04T17:52:39.522Z,62.83
2018-11-04T17:55:14.579Z,63.10
2018-11-04T18:03:11.390Z,62.87
2018-11-04T18:08:27.130Z,63.01
2018-11-04T18:11:02.681Z,63.02
2018-11-04T18:13:38.727Z,62.93
2018-11-04T18:18:56.227Z,63.31
2018-11-04T18:21:33.336Z,63.38
2018-11-04T18:24:10.388Z,63.68
2018-11-04T18:26:45.613Z,63.54
2018-11-04T18:29:20.801Z,63.73
2018-11-04T18:31:56.301Z,63.89
2018-11-04T18:34:31.646Z,63.71
2018-11-04T18:37:06.935Z,63.79
2018-11-04T18:39:42.645Z,63.73
2018-11-04T18:47:45.400Z,63.89
2018-11-04T18:50:20.874Z,64.14
2018-11-04T18:52:55.997Z,64.51
2018-11-04T18:58:21.361Z,64.63
2018-11-04T19:00:56.905Z,64.47
2018-11-04T19:03:31.595Z,64.34
2018-11-04T19:08:48.714Z,64.31
2018-11-04T19:11:23.759Z,64.36
2018-11-04T19:13:59.109Z,64.55
2018-11-04T19:16:33.609Z,64.71
2018-11-04T19:19:08.241Z,64.82
2018-11-04T19:21:43.662Z,65.05
2018-11-04T19:24:20.094Z,65.25
2018-11-04T19:29:47.376Z,65.32
2018-11-04T19:32:22.603Z,65.35
2018-11-04T19:34:58.538Z,65.37
2018-11-04T19:37:33.586Z,65.53
2018-11-04T19:40:11.282Z,65.53
2018-11-04T19:42:47.735Z,65.52
2018-11-04T19:45:22.425Z,65.55
2018-11-04T19:47:58.260Z,65.64
2018-11-04T19:50:34.039Z,65.77
2018-11-04T19:58:43.273Z,65.90
2018-11-04T20:01:17.574Z,66.00
2018-11-04T20:03:52.847Z,66.05
2018-11-04T20:06:27.162Z,66.06
2018-11-04T20:11:57.686Z,66.07
2018-11-04T20:14:32.349Z,66.16
2018-11-04T20:20:13.316Z,65.97
2018-11-04T20:22:48.380Z,66.20
2018-11-04T20:25:42.712Z,66.29
2018-11-04T20:28:18.849Z,66.48
2018-11-04T20:30:54.244Z,66.41
2018-11-04T20:33:28.842Z,66.47
2018-11-04T20:36:03.941Z,66.68
2018-11-04T20:38:58.749Z,66.69
2018-11-04T20:41:34.843Z,66.77
2018-11-04T20:47:02.032Z,66.67
2018-11-04T20:49:54.780Z,66.82
2018-11-04T20:52:29.974Z,67.00
2018-11-04T20:57:52.443Z,66.78
2018-11-04T21:00:26.687Z,66.83
2018-11-04T21:03:01.107Z,66.96
2018-11-04T21:05:35.994Z,67.03
2018-11-04T21:08:12.467Z,67.29
2018-11-04T21:10:48.132Z,67.46
2018-11-04T21:13:25.325Z,67.41
2018-11-04T21:16:00.694Z,67.33
2018-11-04T21:18:35.642Z,67.36
2018-11-04T21:21:10.898Z,67.35
2018-11-04T21:23:46.685Z,67.33
2018-11-04T21:26:22.141Z,67.46
2018-11-04T21:28:58.065Z,67.67
2018-11-04T21:34:22.575Z,67.71
2018-11-04T21:36:57.277Z,67.54
2018-11-04T21:39:32.301Z,67.51
2018-11-04T21:42:07.782Z,67.52
2018-11-04T21:44:43.859Z,67.55
2018-11-04T21:47:18.650Z,67.63
2018-11-04T21:49:54.578Z,67.75
2018-11-04T21:52:29.564Z,67.74
2018-11-04T21:55:05.403Z,67.72
2018-11-04T21:57:41.643Z,67.59
2018-11-04T22:00:18.117Z,67.57
2018-11-04T22:08:26.647Z,67.90
2018-11-04T22:11:02.396Z,67.85
2018-11-04T22:13:37.726Z,67.96
2018-11-04T22:16:11.722Z,68.07
2018-11-04T22:18:46.318Z,68.31
2018-11-04T22:21:21.988Z,68.35
2018-11-04T22:23:56.630Z,68.08
2018-11-04T22:26:32.092Z,68.05
2018-11-04T22:29:06.777Z,67.99
2018-11-04T22:31:41.677Z,68.07
2018-11-04T22:34:17.360Z,68.16
2018-11-04T22:36:52.415Z,68.25
2018-11-04T22:39:27.756Z,68.33
2018-11-04T22:42:02.956Z,68.49
2018-11-04T22:44:38.593Z,68.37
2018-11-04T22:47:13.627Z,68.54
2018-11-04T22:49:50.374Z,68.69
2018-11-04T22:52:25.377Z,68.36
2018-11-04T22:55:00.241Z,68.19
2018-11-04T22:57:35.160Z,68.08
2018-11-04T23:00:32.822Z,68.11
2018-11-04T23:03:07.907Z,67.89
2018-11-04T23:05:42.831Z,67.96
2018-11-04T23:08:17.396Z,68.01
2018-11-04T23:10:52.378Z,67.99
2018-11-04T23:13:27.794Z,68.05
2018-11-04T23:16:03.078Z,68.09
2018-11-04T23:18:39.093Z,68.12
2018-11-04T23:21:15.513Z,68.27
2018-11-04T23:23:51.514Z,68.18
2018-11-04T23:26:27.401Z,68.27
2018-11-04T23:29:02.743Z,68.25
2018-11-04T23:34:26.035Z,67.93
2018-11-04T23:37:00.743Z,67.92
2018-11-04T23:39:35.995Z,68.19
2018-11-04T23:42:11.255Z,68.43
2018-11-04T23:44:47.942Z,68.46
2018-11-04T23:47:23.315Z,68.43
2018-11-04T23:49:59.465Z,68.42
2018-11-04T23:52:34.453Z,68.32
2018-11-04T23:55:11.501Z,68.23
2018-11-04T23:57:46.892Z,68.14
